sensor_id;sensor_type;location;lat;lon;timestamp;temperature;humidity
17740;DHT22;8990;33.226;-97.150;2022-08-05T00:00:20;37.40;89.40
17740;DHT22;8990;33.226;-97.150;2022-08-05T00:02:49;37.30;90.00
17740;DHT22;8990;33.226;-97.150;2022-08-05T00:05:20;37.20;90.70
17740;DHT22;8990;33.226;-97.150;2022-08-05T00:07:51;37.10;91.00
17740;DHT22;8990;33.226;-97.150;2022-08-05T00:10:21;37.10;91.10
17740;DHT22;8990;33.226;-97.150;2022-08-05T00:12:51;37.00;91.20
17740;DHT22;8990;33.226;-97.150;2022-08-05T00:15:20;36.90;91.30
17740;DHT22;8990;33.226;-97.150;2022-08-05T00:17:49;36.90;91.60
17740;DHT22;8990;33.226;-97.150;2022-08-05T00:20:18;36.80;91.80
17740;DHT22;8990;33.226;-97.150;2022-08-05T00:22:48;36.80;91.60
17740;DHT22;8990;33.226;-97.150;2022-08-05T00:25:18;36.90;91.70
17740;DHT22;8990;33.226;-97.150;2022-08-05T00:27:48;36.80;91.30
17740;DHT22;8990;33.226;-97.150;2022-08-05T00:30:17;36.70;91.30
17740;DHT22;8990;33.226;-97.150;2022-08-05T00:32:46;36.70;91.70
17740;DHT22;8990;33.226;-97.150;2022-08-05T00:35:16;36.60;91.90
17740;DHT22;8990;33.226;-97.150;2022-08-05T00:37:46;36.40;91.40
17740;DHT22;8990;33.226;-97.150;2022-08-05T00:40:17;36.40;91.30
17740;DHT22;8990;33.226;-97.150;2022-08-05T00:42:47;36.40;91.40
17740;DHT22;8990;33.226;-97.150;2022-08-05T00:45:17;36.40;91.50
17740;DHT22;8990;33.226;-97.150;2022-08-05T00:47:47;36.30;91.70
17740;DHT22;8990;33.226;-97.150;2022-08-05T00:50:16;36.20;91.90
17740;DHT22;8990;33.226;-97.150;2022-08-05T00:52:45;36.10;92.10
17740;DHT22;8990;33.226;-97.150;2022-08-05T00:55:14;36.10;92.20
17740;DHT22;8990;33.226;-97.150;2022-08-05T00:57:45;36.00;92.30
17740;DHT22;8990;33.226;-97.150;2022-08-05T01:00:14;36.00;92.40
17740;DHT22;8990;33.226;-97.150;2022-08-05T01:02:44;35.90;92.30
17740;DHT22;8990;33.226;-97.150;2022-08-05T01:05:13;36.00;92.30
17740;DHT22;8990;33.226;-97.150;2022-08-05T01:07:42;35.90;92.20
17740;DHT22;8990;33.226;-97.150;2022-08-05T01:10:13;35.80;92.30
17740;DHT22;8990;33.226;-97.150;2022-08-05T01:12:52;35.80;92.40
17740;DHT22;8990;33.226;-97.150;2022-08-05T01:15:26;35.60;92.40
17740;DHT22;8990;33.226;-97.150;2022-08-05T01:18:02;35.50;92.40
17740;DHT22;8990;33.226;-97.150;2022-08-05T01:20:50;35.60;92.40
17740;DHT22;8990;33.226;-97.150;2022-08-05T01:23:28;35.60;92.50
17740;DHT22;8990;33.226;-97.150;2022-08-05T01:26:08;35.50;92.60
17740;DHT22;8990;33.226;-97.150;2022-08-05T01:28:46;35.50;92.60
17740;DHT22;8990;33.226;-97.150;2022-08-05T01:31:24;35.50;92.70
17740;DHT22;8990;33.226;-97.150;2022-08-05T01:33:58;35.50;92.70
17740;DHT22;8990;33.226;-97.150;2022-08-05T01:36:31;35.50;92.70
17740;DHT22;8990;33.226;-97.150;2022-08-05T01:39:02;35.40;92.70
17740;DHT22;8990;33.226;-97.150;2022-08-05T01:41:34;35.40;93.10
17740;DHT22;8990;33.226;-97.150;2022-08-05T01:44:06;35.30;92.70
17740;DHT22;8990;33.226;-97.150;2022-08-05T01:46:36;35.20;92.80
17740;DHT22;8990;33.226;-97.150;2022-08-05T01:49:07;35.10;92.90
17740;DHT22;8990;33.226;-97.150;2022-08-05T01:51:39;35.00;92.90
17740;DHT22;8990;33.226;-97.150;2022-08-05T01:54:10;35.00;92.90
17740;DHT22;8990;33.226;-97.150;2022-08-05T01:56:42;35.00;92.90
17740;DHT22;8990;33.226;-97.150;2022-08-05T01:59:17;34.90;93.00
17740;DHT22;8990;33.226;-97.150;2022-08-05T02:01:51;34.90;92.90
17740;DHT22;8990;33.226;-97.150;2022-08-05T02:04:22;34.90;92.90
17740;DHT22;8990;33.226;-97.150;2022-08-05T02:06:52;34.90;93.00
17740;DHT22;8990;33.226;-97.150;2022-08-05T02:09:22;34.80;92.90
17740;DHT22;8990;33.226;-97.150;2022-08-05T02:11:58;34.80;92.90
17740;DHT22;8990;33.226;-97.150;2022-08-05T02:14:32;34.80;92.90
17740;DHT22;8990;33.226;-97.150;2022-08-05T02:17:05;34.70;93.00
17740;DHT22;8990;33.226;-97.150;2022-08-05T02:19:36;34.60;93.10
17740;DHT22;8990;33.226;-97.150;2022-08-05T02:22:12;34.50;93.00
17740;DHT22;8990;33.226;-97.150;2022-08-05T02:24:50;34.50;93.10
17740;DHT22;8990;33.226;-97.150;2022-08-05T02:27:22;34.40;93.00
17740;DHT22;8990;33.226;-97.150;2022-08-05T02:29:55;34.30;93.20
17740;DHT22;8990;33.226;-97.150;2022-08-05T02:32:25;34.30;93.30
17740;DHT22;8990;33.226;-97.150;2022-08-05T02:34:58;34.30;93.30
17740;DHT22;8990;33.226;-97.150;2022-08-05T02:37:28;34.20;93.40
17740;DHT22;8990;33.226;-97.150;2022-08-05T02:40:00;34.30;93.40
17740;DHT22;8990;33.226;-97.150;2022-08-05T02:42:29;34.30;93.30
17740;DHT22;8990;33.226;-97.150;2022-08-05T02:45:02;34.30;93.20
17740;DHT22;8990;33.226;-97.150;2022-08-05T02:47:34;34.40;93.20
17740;DHT22;8990;33.226;-97.150;2022-08-05T02:50:05;34.40;93.20
17740;DHT22;8990;33.226;-97.150;2022-08-05T02:52:35;34.40;93.20
17740;DHT22;8990;33.226;-97.150;2022-08-05T02:55:06;34.40;93.20
17740;DHT22;8990;33.226;-97.150;2022-08-05T02:57:38;34.40;93.20
17740;DHT22;8990;33.226;-97.150;2022-08-05T03:00:11;34.30;93.20
17740;DHT22;8990;33.226;-97.150;2022-08-05T03:02:42;34.30;93.20
17740;DHT22;8990;33.226;-97.150;2022-08-05T03:05:13;34.20;93.20
17740;DHT22;8990;33.226;-97.150;2022-08-05T03:07:43;34.20;93.30
17740;DHT22;8990;33.226;-97.150;2022-08-05T03:10:14;34.10;93.40
17740;DHT22;8990;33.226;-97.150;2022-08-05T03:12:44;34.00;93.50
17740;DHT22;8990;33.226;-97.150;2022-08-05T03:15:17;34.10;93.60
17740;DHT22;8990;33.226;-97.150;2022-08-05T03:17:48;34.20;93.50
17740;DHT22;8990;33.226;-97.150;2022-08-05T03:20:17;34.20;93.50
17740;DHT22;8990;33.226;-97.150;2022-08-05T03:22:46;34.30;93.50
17740;DHT22;8990;33.226;-97.150;2022-08-05T03:25:17;34.30;93.50
17740;DHT22;8990;33.226;-97.150;2022-08-05T03:27:50;34.20;93.60
17740;DHT22;8990;33.226;-97.150;2022-08-05T03:30:22;34.20;93.60
17740;DHT22;8990;33.226;-97.150;2022-08-05T03:32:53;34.20;93.70
17740;DHT22;8990;33.226;-97.150;2022-08-05T03:35:22;34.20;93.70
17740;DHT22;8990;33.226;-97.150;2022-08-05T03:37:52;34.20;93.70
17740;DHT22;8990;33.226;-97.150;2022-08-05T03:40:21;34.20;93.70
17740;DHT22;8990;33.226;-97.150;2022-08-05T03:42:51;34.20;93.70
17740;DHT22;8990;33.226;-97.150;2022-08-05T03:45:22;34.20;93.70
17740;DHT22;8990;33.226;-97.150;2022-08-05T03:47:52;34.20;93.80
17740;DHT22;8990;33.226;-97.150;2022-08-05T03:50:21;34.20;93.80
17740;DHT22;8990;33.226;-97.150;2022-08-05T03:52:59;34.20;93.80
17740;DHT22;8990;33.226;-97.150;2022-08-05T03:55:34;34.20;93.80
17740;DHT22;8990;33.226;-97.150;2022-08-05T03:58:10;34.20;93.90
17740;DHT22;8990;33.226;-97.150;2022-08-05T04:00:42;34.10;93.80
17740;DHT22;8990;33.226;-97.150;2022-08-05T04:03:15;34.00;94.00
17740;DHT22;8990;33.226;-97.150;2022-08-05T04:05:45;33.90;94.20
17740;DHT22;8990;33.226;-97.150;2022-08-05T04:08:16;33.90;94.50
17740;DHT22;8990;33.226;-97.150;2022-08-05T04:10:45;33.80;94.70
17740;DHT22;8990;33.226;-97.150;2022-08-05T04:13:16;33.70;94.80
17740;DHT22;8990;33.226;-97.150;2022-08-05T04:15:49;33.60;94.90
17740;DHT22;8990;33.226;-97.150;2022-08-05T04:18:19;33.50;95.10
17740;DHT22;8990;33.226;-97.150;2022-08-05T04:20:52;33.50;95.50
17740;DHT22;8990;33.226;-97.150;2022-08-05T04:23:24;33.50;95.40
17740;DHT22;8990;33.226;-97.150;2022-08-05T04:25:54;33.50;95.50
17740;DHT22;8990;33.226;-97.150;2022-08-05T04:28:24;33.40;95.50
17740;DHT22;8990;33.226;-97.150;2022-08-05T04:30:54;33.40;95.50
17740;DHT22;8990;33.226;-97.150;2022-08-05T04:33:24;33.40;95.60
17740;DHT22;8990;33.226;-97.150;2022-08-05T04:35:53;33.30;95.70
17740;DHT22;8990;33.226;-97.150;2022-08-05T04:38:23;33.20;95.80
17740;DHT22;8990;33.226;-97.150;2022-08-05T04:40:52;33.10;96.00
17740;DHT22;8990;33.226;-97.150;2022-08-05T04:43:22;33.00;96.20
17740;DHT22;8990;33.226;-97.150;2022-08-05T04:45:53;32.90;96.50
17740;DHT22;8990;33.226;-97.150;2022-08-05T04:48:22;32.90;96.80
17740;DHT22;8990;33.226;-97.150;2022-08-05T04:50:51;32.80;97.00
17740;DHT22;8990;33.226;-97.150;2022-08-05T04:53:20;32.70;97.30
17740;DHT22;8990;33.226;-97.150;2022-08-05T04:55:50;32.80;97.60
17740;DHT22;8990;33.226;-97.150;2022-08-05T04:58:19;32.80;97.70
17740;DHT22;8990;33.226;-97.150;2022-08-05T05:00:48;32.80;97.90
17740;DHT22;8990;33.226;-97.150;2022-08-05T05:03:19;32.80;98.00
17740;DHT22;8990;33.226;-97.150;2022-08-05T05:05:48;32.80;98.10
17740;DHT22;8990;33.226;-97.150;2022-08-05T05:08:17;32.80;98.10
17740;DHT22;8990;33.226;-97.150;2022-08-05T05:10:47;32.60;98.30
17740;DHT22;8990;33.226;-97.150;2022-08-05T05:13:17;32.60;98.80
17740;DHT22;8990;33.226;-97.150;2022-08-05T05:15:46;32.50;98.70
17740;DHT22;8990;33.226;-97.150;2022-08-05T05:18:16;32.40;98.90
17740;DHT22;8990;33.226;-97.150;2022-08-05T05:20:47;32.40;99.10
17740;DHT22;8990;33.226;-97.150;2022-08-05T05:23:17;32.30;99.20
17740;DHT22;8990;33.226;-97.150;2022-08-05T05:25:46;32.30;99.50
17740;DHT22;8990;33.226;-97.150;2022-08-05T05:28:15;32.30;99.50
17740;DHT22;8990;33.226;-97.150;2022-08-05T05:30:46;32.40;99.80
17740;DHT22;8990;33.226;-97.150;2022-08-05T05:33:15;32.40;99.90
17740;DHT22;8990;33.226;-97.150;2022-08-05T05:35:46;32.40;99.90
17740;DHT22;8990;33.226;-97.150;2022-08-05T05:38:16;32.40;99.90
17740;DHT22;8990;33.226;-97.150;2022-08-05T05:40:46;32.40;99.90
17740;DHT22;8990;33.226;-97.150;2022-08-05T05:43:15;32.40;99.90
17740;DHT22;8990;33.226;-97.150;2022-08-05T05:45:44;32.20;99.90
17740;DHT22;8990;33.226;-97.150;2022-08-05T05:48:14;32.20;99.90
17740;DHT22;8990;33.226;-97.150;2022-08-05T05:50:43;32.10;99.90
17740;DHT22;8990;33.226;-97.150;2022-08-05T05:53:14;32.10;99.90
17740;DHT22;8990;33.226;-97.150;2022-08-05T05:55:44;32.00;99.90
17740;DHT22;8990;33.226;-97.150;2022-08-05T05:58:14;31.90;99.90
17740;DHT22;8990;33.226;-97.150;2022-08-05T06:00:43;31.90;99.90
17740;DHT22;8990;33.226;-97.150;2022-08-05T06:03:13;31.90;99.90
17740;DHT22;8990;33.226;-97.150;2022-08-05T06:05:42;32.00;99.90
17740;DHT22;8990;33.226;-97.150;2022-08-05T06:08:13;32.10;99.90
17740;DHT22;8990;33.226;-97.150;2022-08-05T06:10:42;32.10;99.90
17740;DHT22;8990;33.226;-97.150;2022-08-05T06:13:12;32.10;99.90
17740;DHT22;8990;33.226;-97.150;2022-08-05T06:15:41;32.20;99.90
17740;DHT22;8990;33.226;-97.150;2022-08-05T06:18:11;32.20;99.70
17740;DHT22;8990;33.226;-97.150;2022-08-05T06:20:39;32.20;99.80
17740;DHT22;8990;33.226;-97.150;2022-08-05T06:23:09;32.10;99.60
17740;DHT22;8990;33.226;-97.150;2022-08-05T06:25:41;32.10;99.50
17740;DHT22;8990;33.226;-97.150;2022-08-05T06:28:10;32.10;99.60
17740;DHT22;8990;33.226;-97.150;2022-08-05T06:30:39;32.00;99.40
17740;DHT22;8990;33.226;-97.150;2022-08-05T06:33:08;32.00;99.50
17740;DHT22;8990;33.226;-97.150;2022-08-05T06:35:37;31.90;99.40
17740;DHT22;8990;33.226;-97.150;2022-08-05T06:38:06;31.90;99.50
17740;DHT22;8990;33.226;-97.150;2022-08-05T06:40:36;32.00;99.60
17740;DHT22;8990;33.226;-97.150;2022-08-05T06:43:07;32.10;99.90
17740;DHT22;8990;33.226;-97.150;2022-08-05T06:45:37;32.10;99.90
17740;DHT22;8990;33.226;-97.150;2022-08-05T06:48:06;32.20;99.90
17740;DHT22;8990;33.226;-97.150;2022-08-05T06:50:35;32.20;99.90
17740;DHT22;8990;33.226;-97.150;2022-08-05T06:53:05;32.20;99.70
17740;DHT22;8990;33.226;-97.150;2022-08-05T06:55:34;32.10;99.60
17740;DHT22;8990;33.226;-97.150;2022-08-05T06:58:06;32.00;99.70
17740;DHT22;8990;33.226;-97.150;2022-08-05T07:00:36;31.90;99.80
17740;DHT22;8990;33.226;-97.150;2022-08-05T07:03:05;31.80;99.80
17740;DHT22;8990;33.226;-97.150;2022-08-05T07:05:34;31.70;99.90
17740;DHT22;8990;33.226;-97.150;2022-08-05T07:08:05;31.70;99.90
17740;DHT22;8990;33.226;-97.150;2022-08-05T07:10:34;31.60;99.80
17740;DHT22;8990;33.226;-97.150;2022-08-05T07:13:06;31.60;99.70
17740;DHT22;8990;33.226;-97.150;2022-08-05T07:15:52;31.60;99.80
17740;DHT22;8990;33.226;-97.150;2022-08-05T07:18:39;31.60;99.70
17740;DHT22;8990;33.226;-97.150;2022-08-05T07:21:08;31.70;99.60
17740;DHT22;8990;33.226;-97.150;2022-08-05T07:23:37;31.70;99.50
17740;DHT22;8990;33.226;-97.150;2022-08-05T07:26:07;31.70;99.30
17740;DHT22;8990;33.226;-97.150;2022-08-05T07:28:37;31.80;99.20
17740;DHT22;8990;33.226;-97.150;2022-08-05T07:31:07;31.70;99.20
17740;DHT22;8990;33.226;-97.150;2022-08-05T07:33:36;31.70;99.20
17740;DHT22;8990;33.226;-97.150;2022-08-05T07:36:06;31.60;99.20
17740;DHT22;8990;33.226;-97.150;2022-08-05T07:38:37;31.60;99.30
17740;DHT22;8990;33.226;-97.150;2022-08-05T07:41:08;31.50;99.40
17740;DHT22;8990;33.226;-97.150;2022-08-05T07:43:39;31.40;99.50
17740;DHT22;8990;33.226;-97.150;2022-08-05T07:46:09;31.40;99.50
17740;DHT22;8990;33.226;-97.150;2022-08-05T07:48:38;31.40;99.50
17740;DHT22;8990;33.226;-97.150;2022-08-05T07:51:07;31.40;99.60
17740;DHT22;8990;33.226;-97.150;2022-08-05T07:53:37;31.40;99.70
17740;DHT22;8990;33.226;-97.150;2022-08-05T07:56:07;31.40;99.80
17740;DHT22;8990;33.226;-97.150;2022-08-05T07:58:38;31.40;99.80
17740;DHT22;8990;33.226;-97.150;2022-08-05T08:01:07;31.40;99.90
17740;DHT22;8990;33.226;-97.150;2022-08-05T08:03:36;31.40;99.90
17740;DHT22;8990;33.226;-97.150;2022-08-05T08:06:06;31.50;99.90
17740;DHT22;8990;33.226;-97.150;2022-08-05T08:08:35;31.40;99.80
17740;DHT22;8990;33.226;-97.150;2022-08-05T08:11:05;31.40;99.90
17740;DHT22;8990;33.226;-97.150;2022-08-05T08:13:34;31.40;99.90
17740;DHT22;8990;33.226;-97.150;2022-08-05T08:16:05;31.40;99.90
17740;DHT22;8990;33.226;-97.150;2022-08-05T08:18:35;31.30;99.90
17740;DHT22;8990;33.226;-97.150;2022-08-05T08:21:05;31.20;99.90
17740;DHT22;8990;33.226;-97.150;2022-08-05T08:23:34;31.10;99.90
17740;DHT22;8990;33.226;-97.150;2022-08-05T08:26:03;31.10;99.90
17740;DHT22;8990;33.226;-97.150;2022-08-05T08:28:32;31.10;99.90
17740;DHT22;8990;33.226;-97.150;2022-08-05T08:31:01;31.10;99.90
17740;DHT22;8990;33.226;-97.150;2022-08-05T08:33:32;31.00;99.90
17740;DHT22;8990;33.226;-97.150;2022-08-05T08:36:01;31.00;99.90
17740;DHT22;8990;33.226;-97.150;2022-08-05T08:38:30;30.90;99.90
17740;DHT22;8990;33.226;-97.150;2022-08-05T08:41:03;30.90;99.90
17740;DHT22;8990;33.226;-97.150;2022-08-05T08:43:35;30.90;99.90
17740;DHT22;8990;33.226;-97.150;2022-08-05T08:46:05;31.00;99.90
17740;DHT22;8990;33.226;-97.150;2022-08-05T08:48:37;31.00;99.90
17740;DHT22;8990;33.226;-97.150;2022-08-05T08:51:08;31.00;99.90
17740;DHT22;8990;33.226;-97.150;2022-08-05T08:53:38;31.00;99.90
17740;DHT22;8990;33.226;-97.150;2022-08-05T08:56:07;31.00;99.90
17740;DHT22;8990;33.226;-97.150;2022-08-05T08:58:36;30.90;99.90
17740;DHT22;8990;33.226;-97.150;2022-08-05T09:01:06;30.90;99.90
17740;DHT22;8990;33.226;-97.150;2022-08-05T09:03:38;30.90;99.90
17740;DHT22;8990;33.226;-97.150;2022-08-05T09:06:08;30.80;99.90
17740;DHT22;8990;33.226;-97.150;2022-08-05T09:08:37;30.70;99.90
17740;DHT22;8990;33.226;-97.150;2022-08-05T09:11:07;30.70;99.90
17740;DHT22;8990;33.226;-97.150;2022-08-05T09:13:38;30.50;99.90
17740;DHT22;8990;33.226;-97.150;2022-08-05T09:16:07;30.50;99.90
17740;DHT22;8990;33.226;-97.150;2022-08-05T09:18:39;30.50;99.90
17740;DHT22;8990;33.226;-97.150;2022-08-05T09:21:10;30.50;99.90
17740;DHT22;8990;33.226;-97.150;2022-08-05T09:23:39;30.40;99.90
17740;DHT22;8990;33.226;-97.150;2022-08-05T09:26:10;30.30;99.90
17740;DHT22;8990;33.226;-97.150;2022-08-05T09:28:40;30.30;99.90
17740;DHT22;8990;33.226;-97.150;2022-08-05T09:31:14;30.40;99.90
17740;DHT22;8990;33.226;-97.150;2022-08-05T09:33:49;30.40;99.90
17740;DHT22;8990;33.226;-97.150;2022-08-05T09:36:20;30.30;99.90
17740;DHT22;8990;33.226;-97.150;2022-08-05T09:38:56;30.30;99.90
17740;DHT22;8990;33.226;-97.150;2022-08-05T09:41:26;30.30;99.90
17740;DHT22;8990;33.226;-97.150;2022-08-05T09:43:55;30.40;99.90
17740;DHT22;8990;33.226;-97.150;2022-08-05T09:46:26;30.30;99.90
17740;DHT22;8990;33.226;-97.150;2022-08-05T09:48:59;30.20;99.90
17740;DHT22;8990;33.226;-97.150;2022-08-05T09:51:31;30.20;99.90
17740;DHT22;8990;33.226;-97.150;2022-08-05T09:54:01;30.20;99.90
17740;DHT22;8990;33.226;-97.150;2022-08-05T09:56:33;30.10;99.90
17740;DHT22;8990;33.226;-97.150;2022-08-05T09:59:06;30.10;99.90
17740;DHT22;8990;33.226;-97.150;2022-08-05T10:01:38;30.00;99.90
17740;DHT22;8990;33.226;-97.150;2022-08-05T10:04:12;30.00;99.90
17740;DHT22;8990;33.226;-97.150;2022-08-05T10:06:52;29.90;99.90
17740;DHT22;8990;33.226;-97.150;2022-08-05T10:09:22;29.90;99.90
17740;DHT22;8990;33.226;-97.150;2022-08-05T10:11:51;29.90;99.90
17740;DHT22;8990;33.226;-97.150;2022-08-05T10:14:21;29.90;99.90
17740;DHT22;8990;33.226;-97.150;2022-08-05T10:16:51;29.80;99.90
17740;DHT22;8990;33.226;-97.150;2022-08-05T10:19:25;29.80;99.90
17740;DHT22;8990;33.226;-97.150;2022-08-05T10:21:54;29.90;99.90
17740;DHT22;8990;33.226;-97.150;2022-08-05T10:24:23;29.90;99.90
17740;DHT22;8990;33.226;-97.150;2022-08-05T10:26:53;29.70;99.90
17740;DHT22;8990;33.226;-97.150;2022-08-05T10:29:22;29.80;99.90
17740;DHT22;8990;33.226;-97.150;2022-08-05T10:31:53;29.90;99.90
17740;DHT22;8990;33.226;-97.150;2022-08-05T10:34:24;29.90;99.90
17740;DHT22;8990;33.226;-97.150;2022-08-05T10:36:53;30.00;99.90
17740;DHT22;8990;33.226;-97.150;2022-08-05T10:39:27;30.00;99.90
17740;DHT22;8990;33.226;-97.150;2022-08-05T10:42:01;29.90;99.90
17740;DHT22;8990;33.226;-97.150;2022-08-05T10:44:32;29.80;99.90
17740;DHT22;8990;33.226;-97.150;2022-08-05T10:47:10;29.80;99.90
17740;DHT22;8990;33.226;-97.150;2022-08-05T10:50:02;29.70;99.90
17740;DHT22;8990;33.226;-97.150;2022-08-05T10:52:40;29.70;99.90
17740;DHT22;8990;33.226;-97.150;2022-08-05T10:55:11;29.60;99.90
17740;DHT22;8990;33.226;-97.150;2022-08-05T10:57:41;29.50;99.90
17740;DHT22;8990;33.226;-97.150;2022-08-05T11:00:16;29.50;99.90
17740;DHT22;8990;33.226;-97.150;2022-08-05T11:03:09;29.50;99.90
17740;DHT22;8990;33.226;-97.150;2022-08-05T11:05:41;29.40;99.90
17740;DHT22;8990;33.226;-97.150;2022-08-05T11:08:29;29.40;99.90
17740;DHT22;8990;33.226;-97.150;2022-08-05T11:11:32;29.40;99.90
17740;DHT22;8990;33.226;-97.150;2022-08-05T11:14:03;29.40;99.90
17740;DHT22;8990;33.226;-97.150;2022-08-05T11:16:33;29.30;99.90
17740;DHT22;8990;33.226;-97.150;2022-08-05T11:19:27;29.40;99.90
17740;DHT22;8990;33.226;-97.150;2022-08-05T11:25:32;29.40;99.90
17740;DHT22;8990;33.226;-97.150;2022-08-05T11:28:41;29.50;99.90
17740;DHT22;8990;33.226;-97.150;2022-08-05T11:31:30;29.50;99.90
17740;DHT22;8990;33.226;-97.150;2022-08-05T11:34:02;29.50;99.90
17740;DHT22;8990;33.226;-97.150;2022-08-05T11:36:40;29.50;99.90
17740;DHT22;8990;33.226;-97.150;2022-08-05T11:39:12;29.40;99.90
17740;DHT22;8990;33.226;-97.150;2022-08-05T11:41:51;29.40;99.90
17740;DHT22;8990;33.226;-97.150;2022-08-05T11:44:20;29.40;99.90
17740;DHT22;8990;33.226;-97.150;2022-08-05T11:46:56;29.30;99.90
17740;DHT22;8990;33.226;-97.150;2022-08-05T11:49:25;29.30;99.90
17740;DHT22;8990;33.226;-97.150;2022-08-05T11:51:56;29.40;99.90
17740;DHT22;8990;33.226;-97.150;2022-08-05T11:54:29;29.40;99.90
17740;DHT22;8990;33.226;-97.150;2022-08-05T11:57:01;29.40;99.90
17740;DHT22;8990;33.226;-97.150;2022-08-05T11:59:31;29.40;99.90
17740;DHT22;8990;33.226;-97.150;2022-08-05T12:02:02;29.40;99.90
17740;DHT22;8990;33.226;-97.150;2022-08-05T12:04:39;29.40;99.90
17740;DHT22;8990;33.226;-97.150;2022-08-05T12:07:10;29.50;99.90
17740;DHT22;8990;33.226;-97.150;2022-08-05T12:09:45;29.40;99.90
17740;DHT22;8990;33.226;-97.150;2022-08-05T12:12:21;29.50;99.90
17740;DHT22;8990;33.226;-97.150;2022-08-05T12:14:50;29.60;99.90
17740;DHT22;8990;33.226;-97.150;2022-08-05T12:17:20;29.70;99.90
17740;DHT22;8990;33.226;-97.150;2022-08-05T12:19:54;29.60;99.90
17740;DHT22;8990;33.226;-97.150;2022-08-05T12:22:27;29.50;99.90
17740;DHT22;8990;33.226;-97.150;2022-08-05T12:24:58;29.50;99.90
17740;DHT22;8990;33.226;-97.150;2022-08-05T12:27:28;29.50;99.90
17740;DHT22;8990;33.226;-97.150;2022-08-05T12:29:59;29.50;99.90
17740;DHT22;8990;33.226;-97.150;2022-08-05T12:32:31;29.50;99.90
17740;DHT22;8990;33.226;-97.150;2022-08-05T12:35:02;29.50;99.90
17740;DHT22;8990;33.226;-97.150;2022-08-05T12:37:32;29.50;99.90
17740;DHT22;8990;33.226;-97.150;2022-08-05T12:40:07;29.50;99.90
17740;DHT22;8990;33.226;-97.150;2022-08-05T12:42:37;29.40;99.90
17740;DHT22;8990;33.226;-97.150;2022-08-05T12:45:08;29.50;99.90
17740;DHT22;8990;33.226;-97.150;2022-08-05T12:47:39;29.60;99.90
17740;DHT22;8990;33.226;-97.150;2022-08-05T12:50:14;29.60;99.90
17740;DHT22;8990;33.226;-97.150;2022-08-05T12:52:54;29.70;99.90
17740;DHT22;8990;33.226;-97.150;2022-08-05T12:55:29;29.80;99.90
17740;DHT22;8990;33.226;-97.150;2022-08-05T12:57:59;29.90;99.90
17740;DHT22;8990;33.226;-97.150;2022-08-05T13:00:29;29.80;99.90
17740;DHT22;8990;33.226;-97.150;2022-08-05T13:03:00;29.90;99.90
17740;DHT22;8990;33.226;-97.150;2022-08-05T13:05:30;30.00;99.90
17740;DHT22;8990;33.226;-97.150;2022-08-05T13:08:04;30.00;99.90
17740;DHT22;8990;33.226;-97.150;2022-08-05T13:10:42;30.10;99.90
17740;DHT22;8990;33.226;-97.150;2022-08-05T13:13:12;30.20;99.90
17740;DHT22;8990;33.226;-97.150;2022-08-05T13:15:50;30.30;99.90
17740;DHT22;8990;33.226;-97.150;2022-08-05T13:18:20;30.40;99.90
17740;DHT22;8990;33.226;-97.150;2022-08-05T13:20:49;30.50;99.90
17740;DHT22;8990;33.226;-97.150;2022-08-05T13:23:19;30.70;99.90
17740;DHT22;8990;33.226;-97.150;2022-08-05T13:25:50;30.90;99.90
17740;DHT22;8990;33.226;-97.150;2022-08-05T13:28:20;31.00;99.90
17740;DHT22;8990;33.226;-97.150;2022-08-05T13:30:50;31.10;99.90
17740;DHT22;8990;33.226;-97.150;2022-08-05T13:33:20;31.10;99.90
17740;DHT22;8990;33.226;-97.150;2022-08-05T13:35:49;31.00;99.90
17740;DHT22;8990;33.226;-97.150;2022-08-05T13:38:19;31.00;99.90
17740;DHT22;8990;33.226;-97.150;2022-08-05T13:40:52;30.90;99.90
17740;DHT22;8990;33.226;-97.150;2022-08-05T13:43:21;30.90;99.90
17740;DHT22;8990;33.226;-97.150;2022-08-05T13:45:51;30.80;99.90
17740;DHT22;8990;33.226;-97.150;2022-08-05T13:48:22;30.60;99.90
17740;DHT22;8990;33.226;-97.150;2022-08-05T13:50:52;30.60;99.90
17740;DHT22;8990;33.226;-97.150;2022-08-05T13:53:22;30.60;99.90
17740;DHT22;8990;33.226;-97.150;2022-08-05T13:55:54;30.70;99.90
17740;DHT22;8990;33.226;-97.150;2022-08-05T13:58:24;30.50;99.90
17740;DHT22;8990;33.226;-97.150;2022-08-05T14:00:53;30.70;99.90
17740;DHT22;8990;33.226;-97.150;2022-08-05T14:03:24;30.60;99.90
17740;DHT22;8990;33.226;-97.150;2022-08-05T14:05:54;30.70;99.90
17740;DHT22;8990;33.226;-97.150;2022-08-05T14:08:23;30.90;99.90
17740;DHT22;8990;33.226;-97.150;2022-08-05T14:10:55;31.20;99.90
17740;DHT22;8990;33.226;-97.150;2022-08-05T14:13:25;31.30;99.90
17740;DHT22;8990;33.226;-97.150;2022-08-05T14:15:54;31.50;99.90
17740;DHT22;8990;33.226;-97.150;2022-08-05T14:18:24;31.70;99.90
17740;DHT22;8990;33.226;-97.150;2022-08-05T14:20:54;31.90;99.90
17740;DHT22;8990;33.226;-97.150;2022-08-05T14:23:24;32.00;99.90
17740;DHT22;8990;33.226;-97.150;2022-08-05T14:25:56;32.20;99.90
17740;DHT22;8990;33.226;-97.150;2022-08-05T14:28:26;32.20;99.90
17740;DHT22;8990;33.226;-97.150;2022-08-05T14:30:56;32.20;99.90
17740;DHT22;8990;33.226;-97.150;2022-08-05T14:33:25;32.40;99.90
17740;DHT22;8990;33.226;-97.150;2022-08-05T14:35:55;32.50;99.90
17740;DHT22;8990;33.226;-97.150;2022-08-05T14:38:26;32.60;99.90
17740;DHT22;8990;33.226;-97.150;2022-08-05T14:40:57;32.60;99.90
17740;DHT22;8990;33.226;-97.150;2022-08-05T14:43:27;32.70;99.90
17740;DHT22;8990;33.226;-97.150;2022-08-05T14:45:57;32.70;99.90
17740;DHT22;8990;33.226;-97.150;2022-08-05T14:48:27;32.90;99.90
17740;DHT22;8990;33.226;-97.150;2022-08-05T14:50:56;32.90;99.90
17740;DHT22;8990;33.226;-97.150;2022-08-05T14:53:27;33.00;99.90
17740;DHT22;8990;33.226;-97.150;2022-08-05T14:55:58;33.20;99.90
17740;DHT22;8990;33.226;-97.150;2022-08-05T14:58:29;33.40;99.90
17740;DHT22;8990;33.226;-97.150;2022-08-05T15:00:58;33.40;99.90
17740;DHT22;8990;33.226;-97.150;2022-08-05T15:03:28;33.50;99.90
17740;DHT22;8990;33.226;-97.150;2022-08-05T15:05:58;33.70;99.90
17740;DHT22;8990;33.226;-97.150;2022-08-05T15:08:28;33.70;99.90
17740;DHT22;8990;33.226;-97.150;2022-08-05T15:10:59;33.80;99.90
17740;DHT22;8990;33.226;-97.150;2022-08-05T15:13:28;34.00;99.90
17740;DHT22;8990;33.226;-97.150;2022-08-05T15:15:57;34.00;99.90
17740;DHT22;8990;33.226;-97.150;2022-08-05T15:18:27;34.20;99.90
17740;DHT22;8990;33.226;-97.150;2022-08-05T15:20:57;34.30;99.90
17740;DHT22;8990;33.226;-97.150;2022-08-05T15:23:27;34.30;99.90
17740;DHT22;8990;33.226;-97.150;2022-08-05T15:25:58;34.50;99.90
17740;DHT22;8990;33.226;-97.150;2022-08-05T15:28:28;34.50;99.90
17740;DHT22;8990;33.226;-97.150;2022-08-05T15:30:57;34.60;99.90
17740;DHT22;8990;33.226;-97.150;2022-08-05T15:33:27;34.60;99.90
17740;DHT22;8990;33.226;-97.150;2022-08-05T15:35:57;34.60;99.90
17740;DHT22;8990;33.226;-97.150;2022-08-05T15:38:26;34.70;99.90
17740;DHT22;8990;33.226;-97.150;2022-08-05T15:40:55;34.90;99.20
17740;DHT22;8990;33.226;-97.150;2022-08-05T15:43:27;35.00;99.50